sensor_id;sensor_type;location;lat;lon;timestamp;temperature;humidity
913;DHT22;443;51.448;7.028;2024-03-29T00:01:43;9.00;68.10
913;DHT22;443;51.448;7.028;2024-03-29T00:04:09;9.10;67.90
913;DHT22;443;51.448;7.028;2024-03-29T00:06:36;9.10;67.60
913;DHT22;443;51.448;7.028;2024-03-29T00:09:03;9.20;67.20
913;DHT22;443;51.448;7.028;2024-03-29T00:11:29;9.10;67.00
913;DHT22;443;51.448;7.028;2024-03-29T00:13:57;9.40;66.20
913;DHT22;443;51.448;7.028;2024-03-29T00:16:25;9.20;66.50
913;DHT22;443;51.448;7.028;2024-03-29T00:18:51;9.30;66.70
913;DHT22;443;51.448;7.028;2024-03-29T00:21:18;9.40;66.00
913;DHT22;443;51.448;7.028;2024-03-29T00:23:45;9.30;66.50
913;DHT22;443;51.448;7.028;2024-03-29T00:26:12;9.20;66.70
913;DHT22;443;51.448;7.028;2024-03-29T00:28:39;9.20;67.00
913;DHT22;443;51.448;7.028;2024-03-29T00:31:06;9.20;67.20
913;DHT22;443;51.448;7.028;2024-03-29T00:33:34;9.10;67.40
913;DHT22;443;51.448;7.028;2024-03-29T00:36:01;9.20;67.00
913;DHT22;443;51.448;7.028;2024-03-29T00:38:27;9.30;66.70
913;DHT22;443;51.448;7.028;2024-03-29T00:40:54;9.20;66.80
913;DHT22;443;51.448;7.028;2024-03-29T00:43:21;9.10;67.60
913;DHT22;443;51.448;7.028;2024-03-29T00:45:48;9.20;67.50
913;DHT22;443;51.448;7.028;2024-03-29T00:48:14;9.20;67.40
913;DHT22;443;51.448;7.028;2024-03-29T00:50:43;9.20;67.30
913;DHT22;443;51.448;7.028;2024-03-29T00:53:09;9.20;67.30
913;DHT22;443;51.448;7.028;2024-03-29T00:55:36;9.20;67.30
913;DHT22;443;51.448;7.028;2024-03-29T00:58:04;9.20;66.90
913;DHT22;443;51.448;7.028;2024-03-29T01:00:30;9.20;67.00
913;DHT22;443;51.448;7.028;2024-03-29T01:02:57;9.20;67.40
913;DHT22;443;51.448;7.028;2024-03-29T01:05:24;9.10;67.60
913;DHT22;443;51.448;7.028;2024-03-29T01:07:52;9.10;67.30
913;DHT22;443;51.448;7.028;2024-03-29T01:10:19;9.30;66.50
913;DHT22;443;51.448;7.028;2024-03-29T01:12:45;9.10;66.70
913;DHT22;443;51.448;7.028;2024-03-29T01:15:12;9.20;67.60
913;DHT22;443;51.448;7.028;2024-03-29T01:17:39;9.10;67.00
913;DHT22;443;51.448;7.028;2024-03-29T01:20:06;9.20;66.90
913;DHT22;443;51.448;7.028;2024-03-29T01:22:33;9.30;65.90
913;DHT22;443;51.448;7.028;2024-03-29T01:25:01;9.30;65.60
913;DHT22;443;51.448;7.028;2024-03-29T01:27:28;9.30;65.50
913;DHT22;443;51.448;7.028;2024-03-29T01:29:54;9.50;64.90
913;DHT22;443;51.448;7.028;2024-03-29T01:32:21;9.40;64.80
913;DHT22;443;51.448;7.028;2024-03-29T01:34:48;9.40;64.60
913;DHT22;443;51.448;7.028;2024-03-29T01:37:15;9.50;64.80
913;DHT22;443;51.448;7.028;2024-03-29T01:39:41;9.60;64.60
913;DHT22;443;51.448;7.028;2024-03-29T01:42:09;9.60;64.20
913;DHT22;443;51.448;7.028;2024-03-29T01:44:36;9.60;63.60
913;DHT22;443;51.448;7.028;2024-03-29T01:47:05;9.70;63.20
913;DHT22;443;51.448;7.028;2024-03-29T01:49:32;9.70;63.60
913;DHT22;443;51.448;7.028;2024-03-29T01:52:01;9.80;63.00
913;DHT22;443;51.448;7.028;2024-03-29T01:54:30;9.70;63.20
913;DHT22;443;51.448;7.028;2024-03-29T01:56:58;9.60;63.70
913;DHT22;443;51.448;7.028;2024-03-29T01:59:28;9.70;63.50
913;DHT22;443;51.448;7.028;2024-03-29T02:01:56;9.60;64.00
913;DHT22;443;51.448;7.028;2024-03-29T02:04:24;9.80;63.40
913;DHT22;443;51.448;7.028;2024-03-29T02:06:51;9.70;63.80
913;DHT22;443;51.448;7.028;2024-03-29T02:09:19;9.70;64.30
913;DHT22;443;51.448;7.028;2024-03-29T02:11:47;9.70;63.90
913;DHT22;443;51.448;7.028;2024-03-29T02:14:14;9.70;63.60
913;DHT22;443;51.448;7.028;2024-03-29T02:16:43;9.70;63.40
913;DHT22;443;51.448;7.028;2024-03-29T02:19:11;9.70;63.60
913;DHT22;443;51.448;7.028;2024-03-29T02:21:43;9.70;64.30
913;DHT22;443;51.448;7.028;2024-03-29T02:24:14;9.70;63.50
913;DHT22;443;51.448;7.028;2024-03-29T02:26:42;9.80;63.50
913;DHT22;443;51.448;7.028;2024-03-29T02:29:11;9.60;63.90
913;DHT22;443;51.448;7.028;2024-03-29T02:31:39;9.60;64.50
913;DHT22;443;51.448;7.028;2024-03-29T02:34:06;9.70;63.70
913;DHT22;443;51.448;7.028;2024-03-29T02:36:35;9.60;64.60
913;DHT22;443;51.448;7.028;2024-03-29T02:39:04;9.50;65.00
913;DHT22;443;51.448;7.028;2024-03-29T02:41:33;9.60;64.50
913;DHT22;443;51.448;7.028;2024-03-29T02:44:01;9.60;64.40
913;DHT22;443;51.448;7.028;2024-03-29T02:46:28;9.80;63.00
913;DHT22;443;51.448;7.028;2024-03-29T02:48:56;9.70;63.80
913;DHT22;443;51.448;7.028;2024-03-29T02:51:23;9.90;62.60
913;DHT22;443;51.448;7.028;2024-03-29T02:53:50;10.00;60.50
913;DHT22;443;51.448;7.028;2024-03-29T02:56:17;10.20;59.80
913;DHT22;443;51.448;7.028;2024-03-29T02:58:49;10.30;59.50
913;DHT22;443;51.448;7.028;2024-03-29T03:01:16;10.30;59.20
913;DHT22;443;51.448;7.028;2024-03-29T03:03:43;10.30;60.00
913;DHT22;443;51.448;7.028;2024-03-29T03:06:11;10.30;60.60
913;DHT22;443;51.448;7.028;2024-03-29T03:08:38;10.10;61.70
913;DHT22;443;51.448;7.028;2024-03-29T03:11:23;10.00;62.60
913;DHT22;443;51.448;7.028;2024-03-29T03:13:52;10.10;62.60
913;DHT22;443;51.448;7.028;2024-03-29T03:16:20;10.00;63.50
913;DHT22;443;51.448;7.028;2024-03-29T03:18:49;9.90;66.70
913;DHT22;443;51.448;7.028;2024-03-29T03:21:16;9.60;70.00
913;DHT22;443;51.448;7.028;2024-03-29T03:23:44;9.70;67.40
913;DHT22;443;51.448;7.028;2024-03-29T03:26:10;9.80;66.30
913;DHT22;443;51.448;7.028;2024-03-29T03:28:38;9.90;66.40
913;DHT22;443;51.448;7.028;2024-03-29T03:31:06;9.90;65.60
913;DHT22;443;51.448;7.028;2024-03-29T03:33:35;9.80;68.30
913;DHT22;443;51.448;7.028;2024-03-29T03:36:02;9.80;67.20
913;DHT22;443;51.448;7.028;2024-03-29T03:38:30;9.80;68.30
913;DHT22;443;51.448;7.028;2024-03-29T03:40:57;9.80;68.20
913;DHT22;443;51.448;7.028;2024-03-29T03:43:25;10.00;65.00
913;DHT22;443;51.448;7.028;2024-03-29T03:45:51;9.90;67.50
913;DHT22;443;51.448;7.028;2024-03-29T03:48:21;9.80;67.90
913;DHT22;443;51.448;7.028;2024-03-29T03:50:48;9.80;68.20
913;DHT22;443;51.448;7.028;2024-03-29T03:53:15;9.80;68.50
913;DHT22;443;51.448;7.028;2024-03-29T03:55:43;9.80;68.90
913;DHT22;443;51.448;7.028;2024-03-29T03:58:09;9.80;69.10
913;DHT22;443;51.448;7.028;2024-03-29T04:00:37;9.70;70.00
913;DHT22;443;51.448;7.028;2024-03-29T04:03:04;9.60;70.30
913;DHT22;443;51.448;7.028;2024-03-29T04:05:36;9.60;70.70
913;DHT22;443;51.448;7.028;2024-03-29T04:08:03;9.60;70.80
913;DHT22;443;51.448;7.028;2024-03-29T04:10:31;9.60;71.40
913;DHT22;443;51.448;7.028;2024-03-29T04:12:58;9.60;70.80
913;DHT22;443;51.448;7.028;2024-03-29T04:15:25;9.40;72.90
913;DHT22;443;51.448;7.028;2024-03-29T04:17:52;9.30;73.80
913;DHT22;443;51.448;7.028;2024-03-29T04:20:19;9.40;72.70
913;DHT22;443;51.448;7.028;2024-03-29T04:22:47;9.40;72.00
913;DHT22;443;51.448;7.028;2024-03-29T04:25:15;9.50;72.80
913;DHT22;443;51.448;7.028;2024-03-29T04:27:42;9.30;75.80
913;DHT22;443;51.448;7.028;2024-03-29T04:30:10;9.20;75.40
913;DHT22;443;51.448;7.028;2024-03-29T04:32:37;9.10;75.50
913;DHT22;443;51.448;7.028;2024-03-29T04:35:05;9.00;77.70
913;DHT22;443;51.448;7.028;2024-03-29T04:37:32;9.10;77.60
913;DHT22;443;51.448;7.028;2024-03-29T04:40:01;9.10;77.00
913;DHT22;443;51.448;7.028;2024-03-29T04:42:29;9.00;78.70
913;DHT22;443;51.448;7.028;2024-03-29T04:44:57;8.90;81.60
913;DHT22;443;51.448;7.028;2024-03-29T04:47:26;8.80;83.30
913;DHT22;443;51.448;7.028;2024-03-29T04:49:54;8.60;83.60
913;DHT22;443;51.448;7.028;2024-03-29T04:52:21;8.60;81.10
913;DHT22;443;51.448;7.028;2024-03-29T04:54:50;8.50;84.20
913;DHT22;443;51.448;7.028;2024-03-29T04:57:19;8.40;86.60
913;DHT22;443;51.448;7.028;2024-03-29T04:59:47;8.20;87.70
913;DHT22;443;51.448;7.028;2024-03-29T05:02:14;8.30;89.20
913;DHT22;443;51.448;7.028;2024-03-29T05:04:42;8.20;89.80
913;DHT22;443;51.448;7.028;2024-03-29T05:07:10;8.00;88.90
913;DHT22;443;51.448;7.028;2024-03-29T05:09:38;8.10;88.10
913;DHT22;443;51.448;7.028;2024-03-29T05:12:06;8.00;89.70
913;DHT22;443;51.448;7.028;2024-03-29T05:14:35;8.00;90.50
913;DHT22;443;51.448;7.028;2024-03-29T05:17:03;7.80;91.50
913;DHT22;443;51.448;7.028;2024-03-29T05:19:30;7.80;92.00
913;DHT22;443;51.448;7.028;2024-03-29T05:21:58;7.80;91.70
913;DHT22;443;51.448;7.028;2024-03-29T05:24:27;7.70;92.20
913;DHT22;443;51.448;7.028;2024-03-29T05:26:55;7.70;92.20
913;DHT22;443;51.448;7.028;2024-03-29T05:29:22;7.80;91.70
913;DHT22;443;51.448;7.028;2024-03-29T05:31:51;7.90;91.40
913;DHT22;443;51.448;7.028;2024-03-29T05:34:19;7.70;92.50
913;DHT22;443;51.448;7.028;2024-03-29T05:36:46;7.70;92.80
913;DHT22;443;51.448;7.028;2024-03-29T05:39:14;7.80;92.40
913;DHT22;443;51.448;7.028;2024-03-29T05:41:42;7.70;92.60
913;DHT22;443;51.448;7.028;2024-03-29T05:44:10;7.60;92.10
913;DHT22;443;51.448;7.028;2024-03-29T05:46:37;7.70;92.30
913;DHT22;443;51.448;7.028;2024-03-29T05:49:07;7.70;91.90
913;DHT22;443;51.448;7.028;2024-03-29T05:51:35;7.70;91.80
913;DHT22;443;51.448;7.028;2024-03-29T05:54:03;7.70;91.90
913;DHT22;443;51.448;7.028;2024-03-29T05:56:30;7.70;92.40
913;DHT22;443;51.448;7.028;2024-03-29T05:58:58;7.60;93.30
913;DHT22;443;51.448;7.028;2024-03-29T06:01:26;7.70;92.30
913;DHT22;443;51.448;7.028;2024-03-29T06:03:53;7.70;91.90
913;DHT22;443;51.448;7.028;2024-03-29T06:06:24;7.60;92.00
913;DHT22;443;51.448;7.028;2024-03-29T06:08:51;7.60;92.40
913;DHT22;443;51.448;7.028;2024-03-29T06:11:19;7.60;93.00
913;DHT22;443;51.448;7.028;2024-03-29T06:13:47;7.70;92.60
913;DHT22;443;51.448;7.028;2024-03-29T06:16:32;7.60;92.80
913;DHT22;443;51.448;7.028;2024-03-29T06:19:17;7.70;93.20
913;DHT22;443;51.448;7.028;2024-03-29T06:21:46;7.70;93.30
913;DHT22;443;51.448;7.028;2024-03-29T06:24:13;7.60;93.30
913;DHT22;443;51.448;7.028;2024-03-29T06:26:43;7.60;93.70
913;DHT22;443;51.448;7.028;2024-03-29T06:29:11;7.60;93.70
913;DHT22;443;51.448;7.028;2024-03-29T06:31:39;7.80;92.70
913;DHT22;443;51.448;7.028;2024-03-29T06:34:06;7.80;92.90
913;DHT22;443;51.448;7.028;2024-03-29T06:36:34;7.80;93.20
913;DHT22;443;51.448;7.028;2024-03-29T06:39:04;7.90;91.80
913;DHT22;443;51.448;7.028;2024-03-29T06:41:32;7.90;92.40
913;DHT22;443;51.448;7.028;2024-03-29T06:43:59;7.90;92.40
913;DHT22;443;51.448;7.028;2024-03-29T06:46:28;8.00;91.60
913;DHT22;443;51.448;7.028;2024-03-29T06:48:56;8.00;92.30
913;DHT22;443;51.448;7.028;2024-03-29T06:51:24;8.00;92.60
913;DHT22;443;51.448;7.028;2024-03-29T06:53:51;8.10;91.70
913;DHT22;443;51.448;7.028;2024-03-29T06:56:20;8.10;92.00
913;DHT22;443;51.448;7.028;2024-03-29T06:58:48;8.20;91.70
913;DHT22;443;51.448;7.028;2024-03-29T07:01:17;8.40;91.40
913;DHT22;443;51.448;7.028;2024-03-29T07:03:48;8.40;91.10
913;DHT22;443;51.448;7.028;2024-03-29T07:06:15;8.40;91.60
913;DHT22;443;51.448;7.028;2024-03-29T07:08:43;8.40;91.60
913;DHT22;443;51.448;7.028;2024-03-29T07:11:11;8.50;91.30
913;DHT22;443;51.448;7.028;2024-03-29T07:13:40;8.70;91.00
913;DHT22;443;51.448;7.028;2024-03-29T07:16:08;8.70;90.80
913;DHT22;443;51.448;7.028;2024-03-29T07:18:36;8.90;91.10
913;DHT22;443;51.448;7.028;2024-03-29T07:21:04;8.90;91.00
913;DHT22;443;51.448;7.028;2024-03-29T07:23:31;9.10;91.00
913;DHT22;443;51.448;7.028;2024-03-29T07:26:00;9.20;90.90
913;DHT22;443;51.448;7.028;2024-03-29T07:28:29;9.10;90.60
913;DHT22;443;51.448;7.028;2024-03-29T07:31:05;9.20;90.30
913;DHT22;443;51.448;7.028;2024-03-29T07:33:33;9.30;90.40
913;DHT22;443;51.448;7.028;2024-03-29T07:36:01;9.40;90.30
913;DHT22;443;51.448;7.028;2024-03-29T07:38:30;9.40;90.20
913;DHT22;443;51.448;7.028;2024-03-29T07:40:57;9.60;90.00
913;DHT22;443;51.448;7.028;2024-03-29T07:43:25;9.60;90.30
913;DHT22;443;51.448;7.028;2024-03-29T07:45:53;9.60;90.00
913;DHT22;443;51.448;7.028;2024-03-29T07:48:22;9.50;90.30
913;DHT22;443;51.448;7.028;2024-03-29T07:50:50;9.50;90.50
913;DHT22;443;51.448;7.028;2024-03-29T07:53:18;9.50;90.60
913;DHT22;443;51.448;7.028;2024-03-29T07:55:45;9.50;90.50
913;DHT22;443;51.448;7.028;2024-03-29T07:58:16;9.60;90.50
913;DHT22;443;51.448;7.028;2024-03-29T08:00:44;9.70;90.20
913;DHT22;443;51.448;7.028;2024-03-29T08:03:11;9.70;90.30
913;DHT22;443;51.448;7.028;2024-03-29T08:05:40;9.80;90.40
913;DHT22;443;51.448;7.028;2024-03-29T08:08:08;9.80;90.60
913;DHT22;443;51.448;7.028;2024-03-29T08:10:36;9.80;90.50
913;DHT22;443;51.448;7.028;2024-03-29T08:13:03;9.90;90.90
913;DHT22;443;51.448;7.028;2024-03-29T08:15:32;9.80;91.60
913;DHT22;443;51.448;7.028;2024-03-29T08:18:00;9.70;92.20
913;DHT22;443;51.448;7.028;2024-03-29T08:20:28;9.50;93.00
913;DHT22;443;51.448;7.028;2024-03-29T08:22:59;9.40;93.80
913;DHT22;443;51.448;7.028;2024-03-29T08:25:27;9.50;94.30
913;DHT22;443;51.448;7.028;2024-03-29T08:27:55;9.50;94.50
913;DHT22;443;51.448;7.028;2024-03-29T08:30:25;9.50;94.40
913;DHT22;443;51.448;7.028;2024-03-29T08:32:53;9.40;94.60
913;DHT22;443;51.448;7.028;2024-03-29T08:35:20;9.50;94.60
913;DHT22;443;51.448;7.028;2024-03-29T08:37:48;9.60;94.50
913;DHT22;443;51.448;7.028;2024-03-29T08:40:17;9.70;94.40
913;DHT22;443;51.448;7.028;2024-03-29T08:42:45;9.60;94.30
913;DHT22;443;51.448;7.028;2024-03-29T08:45:13;9.60;94.60
913;DHT22;443;51.448;7.028;2024-03-29T08:47:41;9.60;94.60
913;DHT22;443;51.448;7.028;2024-03-29T08:50:09;9.70;94.70
913;DHT22;443;51.448;7.028;2024-03-29T08:52:36;9.70;94.60
913;DHT22;443;51.448;7.028;2024-03-29T08:55:05;9.80;94.40
913;DHT22;443;51.448;7.028;2024-03-29T08:57:34;9.70;94.50
913;DHT22;443;51.448;7.028;2024-03-29T09:00:02;9.70;94.60
913;DHT22;443;51.448;7.028;2024-03-29T09:02:31;9.90;94.50
913;DHT22;443;51.448;7.028;2024-03-29T09:04:58;10.00;94.20
913;DHT22;443;51.448;7.028;2024-03-29T09:07:26;9.90;95.30
913;DHT22;443;51.448;7.028;2024-03-29T09:09:54;9.90;94.80
913;DHT22;443;51.448;7.028;2024-03-29T09:12:22;10.00;94.00
913;DHT22;443;51.448;7.028;2024-03-29T09:14:51;9.90;94.70
913;DHT22;443;51.448;7.028;2024-03-29T09:17:19;9.90;94.90
913;DHT22;443;51.448;7.028;2024-03-29T09:19:49;10.00;94.30
913;DHT22;443;51.448;7.028;2024-03-29T09:22:18;10.20;94.70
913;DHT22;443;51.448;7.028;2024-03-29T09:24:45;10.30;94.60
913;DHT22;443;51.448;7.028;2024-03-29T09:27:13;10.40;94.50
913;DHT22;443;51.448;7.028;2024-03-29T09:29:40;10.40;94.60
913;DHT22;443;51.448;7.028;2024-03-29T09:32:09;10.40;94.30
913;DHT22;443;51.448;7.028;2024-03-29T09:34:36;10.40;94.10
913;DHT22;443;51.448;7.028;2024-03-29T09:37:04;10.50;94.20
913;DHT22;443;51.448;7.028;2024-03-29T09:39:32;10.70;93.80
913;DHT22;443;51.448;7.028;2024-03-29T09:42:02;10.80;93.70
913;DHT22;443;51.448;7.028;2024-03-29T09:44:32;10.70;94.00
913;DHT22;443;51.448;7.028;2024-03-29T09:47:03;10.70;94.10
913;DHT22;443;51.448;7.028;2024-03-29T09:49:33;10.80;93.30
913;DHT22;443;51.448;7.028;2024-03-29T09:52:01;10.90;93.60
913;DHT22;443;51.448;7.028;2024-03-29T09:54:29;11.10;92.90
913;DHT22;443;51.448;7.028;2024-03-29T09:56:58;11.10;93.20
913;DHT22;443;51.448;7.028;2024-03-29T09:59:25;11.10;93.10
913;DHT22;443;51.448;7.028;2024-03-29T10:01:55;11.10;92.70
913;DHT22;443;51.448;7.028;2024-03-29T10:04:24;11.20;92.80
913;DHT22;443;51.448;7.028;2024-03-29T10:06:53;11.30;92.80
913;DHT22;443;51.448;7.028;2024-03-29T10:09:22;11.60;91.90
913;DHT22;443;51.448;7.028;2024-03-29T10:11:53;11.70;91.80
913;DHT22;443;51.448;7.028;2024-03-29T10:14:21;11.60;91.50
913;DHT22;443;51.448;7.028;2024-03-29T10:16:51;11.60;91.10
913;DHT22;443;51.448;7.028;2024-03-29T10:19:21;11.70;91.00
913;DHT22;443;51.448;7.028;2024-03-29T10:21:48;11.70;90.60
913;DHT22;443;51.448;7.028;2024-03-29T10:24:18;11.70;90.80
913;DHT22;443;51.448;7.028;2024-03-29T10:26:47;11.70;90.60
913;DHT22;443;51.448;7.028;2024-03-29T10:29:16;11.80;91.20
913;DHT22;443;51.448;7.028;2024-03-29T10:31:43;11.70;91.10
913;DHT22;443;51.448;7.028;2024-03-29T10:34:11;11.80;90.60
913;DHT22;443;51.448;7.028;2024-03-29T10:36:39;11.80;90.90
913;DHT22;443;51.448;7.028;2024-03-29T10:39:10;11.70;90.60
913;DHT22;443;51.448;7.028;2024-03-29T10:41:41;11.70;90.50
913;DHT22;443;51.448;7.028;2024-03-29T10:44:10;11.80;90.00
913;DHT22;443;51.448;7.028;2024-03-29T10:46:39;11.90;90.10
913;DHT22;443;51.448;7.028;2024-03-29T10:49:08;11.90;89.80
913;DHT22;443;51.448;7.028;2024-03-29T10:51:38;12.00;89.10
913;DHT22;443;51.448;7.028;2024-03-29T10:54:08;12.00;89.70
913;DHT22;443;51.448;7.028;2024-03-29T10:56:36;12.20;88.40
913;DHT22;443;51.448;7.028;2024-03-29T10:59:11;12.20;88.10
913;DHT22;443;51.448;7.028;2024-03-29T11:01:41;12.20;89.80
913;DHT22;443;51.448;7.028;2024-03-29T11:04:18;12.30;88.90
913;DHT22;443;51.448;7.028;2024-03-29T11:06:49;12.20;90.40
913;DHT22;443;51.448;7.028;2024-03-29T11:09:19;12.30;88.30
913;DHT22;443;51.448;7.028;2024-03-29T11:11:50;12.50;88.00
913;DHT22;443;51.448;7.028;2024-03-29T11:14:23;12.50;88.00
913;DHT22;443;51.448;7.028;2024-03-29T11:16:54;12.70;87.40
913;DHT22;443;51.448;7.028;2024-03-29T11:19:25;12.90;87.40
913;DHT22;443;51.448;7.028;2024-03-29T11:21:53;13.10;85.10
913;DHT22;443;51.448;7.028;2024-03-29T11:24:22;13.10;85.30
913;DHT22;443;51.448;7.028;2024-03-29T11:26:50;13.40;84.40
913;DHT22;443;51.448;7.028;2024-03-29T11:29:20;13.60;84.50
913;DHT22;443;51.448;7.028;2024-03-29T11:31:55;13.70;82.20
913;DHT22;443;51.448;7.028;2024-03-29T11:34:23;13.90;82.10
913;DHT22;443;51.448;7.028;2024-03-29T11:36:51;14.00;80.90
913;DHT22;443;51.448;7.028;2024-03-29T11:39:23;14.20;79.60
913;DHT22;443;51.448;7.028;2024-03-29T11:41:51;14.30;80.90
913;DHT22;443;51.448;7.028;2024-03-29T11:44:21;14.50;80.20
913;DHT22;443;51.448;7.028;2024-03-29T11:46:50;14.30;78.00
913;DHT22;443;51.448;7.028;2024-03-29T11:49:18;14.20;79.60
913;DHT22;443;51.448;7.028;2024-03-29T11:51:46;14.10;78.50
913;DHT22;443;51.448;7.028;2024-03-29T11:54:16;13.90;78.20
913;DHT22;443;51.448;7.028;2024-03-29T11:56:44;13.70;79.30
913;DHT22;443;51.448;7.028;2024-03-29T11:59:12;13.80;79.30
913;DHT22;443;51.448;7.028;2024-03-29T12:01:41;13.90;78.60
913;DHT22;443;51.448;7.028;2024-03-29T12:04:09;14.00;78.60
913;DHT22;443;51.448;7.028;2024-03-29T12:06:37;14.00;78.00
913;DHT22;443;51.448;7.028;2024-03-29T12:09:04;14.10;78.10
913;DHT22;443;51.448;7.028;2024-03-29T12:11:32;14.10;79.20
913;DHT22;443;51.448;7.028;2024-03-29T12:14:00;14.20;78.00
913;DHT22;443;51.448;7.028;2024-03-29T12:16:28;14.20;76.20
913;DHT22;443;51.448;7.028;2024-03-29T12:18:57;14.30;75.10
913;DHT22;443;51.448;7.028;2024-03-29T12:21:25;14.30;74.30
913;DHT22;443;51.448;7.028;2024-03-29T12:23:53;14.30;74.70
913;DHT22;443;51.448;7.028;2024-03-29T12:26:21;14.30;72.40
913;DHT22;443;51.448;7.028;2024-03-29T12:28:50;14.20;71.40
913;DHT22;443;51.448;7.028;2024-03-29T12:31:17;14.10;70.60
913;DHT22;443;51.448;7.028;2024-03-29T12:33:51;14.20;70.90
913;DHT22;443;51.448;7.028;2024-03-29T12:36:24;14.10;69.90
913;DHT22;443;51.448;7.028;2024-03-29T12:38:54;14.10;69.40
913;DHT22;443;51.448;7.028;2024-03-29T12:41:24;14.20;70.40
913;DHT22;443;51.448;7.028;2024-03-29T12:43:52;14.30;68.00
913;DHT22;443;51.448;7.028;2024-03-29T12:46:21;14.30;68.90
913;DHT22;443;51.448;7.028;2024-03-29T12:48:48;14.30;68.70
913;DHT22;443;51.448;7.028;2024-03-29T12:51:26;14.20;68.20
913;DHT22;443;51.448;7.028;2024-03-29T12:53:54;14.20;67.80
913;DHT22;443;51.448;7.028;2024-03-29T12:56:21;14.20;68.50
913;DHT22;443;51.448;7.028;2024-03-29T12:58:49;14.20;68.80
913;DHT22;443;51.448;7.028;2024-03-29T13:01:17;14.30;69.10
913;DHT22;443;51.448;7.028;2024-03-29T13:03:44;14.40;68.40
913;DHT22;443;51.448;7.028;2024-03-29T13:06:12;14.40;68.50
913;DHT22;443;51.448;7.028;2024-03-29T13:08:41;14.50;68.80
913;DHT22;443;51.448;7.028;2024-03-29T13:11:09;14.70;68.70
913;DHT22;443;51.448;7.028;2024-03-29T13:13:37;14.70;68.20
913;DHT22;443;51.448;7.028;2024-03-29T13:16:06;14.60;68.30
913;DHT22;443;51.448;7.028;2024-03-29T13:18:33;14.50;68.10
913;DHT22;443;51.448;7.028;2024-03-29T13:21:01;14.60;68.70
913;DHT22;443;51.448;7.028;2024-03-29T13:23:29;14.60;67.50
913;DHT22;443;51.448;7.028;2024-03-29T13:26:00;14.60;66.90
913;DHT22;443;51.448;7.028;2024-03-29T13:28:27;14.70;67.70
913;DHT22;443;51.448;7.028;2024-03-29T13:30:55;14.80;67.10
913;DHT22;443;51.448;7.028;2024-03-29T13:33:23;15.00;67.70
913;DHT22;443;51.448;7.028;2024-03-29T13:35:53;15.10;67.40
913;DHT22;443;51.448;7.028;2024-03-29T13:38:21;15.40;66.00
913;DHT22;443;51.448;7.028;2024-03-29T13:40:49;15.10;63.90
913;DHT22;443;51.448;7.028;2024-03-29T13:43:18;15.20;64.10
913;DHT22;443;51.448;7.028;2024-03-29T13:45:48;15.30;65.30
913;DHT22;443;51.448;7.028;2024-03-29T13:48:17;15.30;63.80
913;DHT22;443;51.448;7.028;2024-03-29T13:50:44;15.50;64.00
913;DHT22;443;51.448;7.028;2024-03-29T13:53:12;15.30;64.40
913;DHT22;443;51.448;7.028;2024-03-29T13:55:41;15.30;64.00
913;DHT22;443;51.448;7.028;2024-03-29T13:58:10;15.30;64.80
913;DHT22;443;51.448;7.028;2024-03-29T14:00:39;15.40;62.90
913;DHT22;443;51.448;7.028;2024-03-29T14:03:07;15.40;63.50
913;DHT22;443;51.448;7.028;2024-03-29T14:05:35;15.20;62.90
913;DHT22;443;51.448;7.028;2024-03-29T14:08:05;15.20;63.60
913;DHT22;443;51.448;7.028;2024-03-29T14:10:33;15.00;64.20
913;DHT22;443;51.448;7.028;2024-03-29T14:13:02;15.10;64.20
913;DHT22;443;51.448;7.028;2024-03-29T14:15:31;15.10;64.60
913;DHT22;443;51.448;7.028;2024-03-29T14:18:00;15.00;63.50
913;DHT22;443;51.448;7.028;2024-03-29T14:20:28;14.90;64.20
913;DHT22;443;51.448;7.028;2024-03-29T14:22:56;15.00;64.30
913;DHT22;443;51.448;7.028;2024-03-29T14:25:30;14.90;64.90
913;DHT22;443;51.448;7.028;2024-03-29T14:27:57;15.00;65.50
913;DHT22;443;51.448;7.028;2024-03-29T14:30:26;15.10;65.70
913;DHT22;443;51.448;7.028;2024-03-29T14:32:53;15.00;68.10
913;DHT22;443;51.448;7.028;2024-03-29T14:35:22;14.90;70.00
913;DHT22;443;51.448;7.028;2024-03-29T14:37:52;15.10;71.10
913;DHT22;443;51.448;7.028;2024-03-29T14:40:19;15.20;71.30
913;DHT22;443;51.448;7.028;2024-03-29T14:42:47;15.00;71.30
913;DHT22;443;51.448;7.028;2024-03-29T14:45:15;14.90;71.80
913;DHT22;443;51.448;7.028;2024-03-29T14:47:43;14.90;72.30
913;DHT22;443;51.448;7.028;2024-03-29T14:50:11;14.90;72.30
913;DHT22;443;51.448;7.028;2024-03-29T14:52:40;15.00;72.10
913;DHT22;443;51.448;7.028;2024-03-29T14:55:08;14.90;71.90
913;DHT22;443;51.448;7.028;2024-03-29T14:57:35;15.00;70.30
913;DHT22;443;51.448;7.028;2024-03-29T15:00:04;15.10;70.50
913;DHT22;443;51.448;7.028;2024-03-29T15:02:32;15.00;70.30
913;DHT22;443;51.448;7.028;2024-03-29T15:05:00;14.90;69.30
913;DHT22;443;51.448;7.028;2024-03-29T15:07:32;15.00;69.60
913;DHT22;443;51.448;7.028;2024-03-29T15:10:01;15.00;69.40
913;DHT22;443;51.448;7.028;2024-03-29T15:12:31;15.00;68.70
913;DHT22;443;51.448;7.028;2024-03-29T15:14:58;15.00;69.00
913;DHT22;443;51.448;7.028;2024-03-29T15:17:26;14.80;69.90
913;DHT22;443;51.448;7.028;2024-03-29T15:19:54;14.80;70.30
913;DHT22;443;51.448;7.028;2024-03-29T15:22:21;14.80;69.80
913;DHT22;443;51.448;7.028;2024-03-29T15:24:49;14.80;69.80
913;DHT22;443;51.448;7.028;2024-03-29T15:27:21;14.70;69.70
913;DHT22;443;51.448;7.028;2024-03-29T15:30:14;14.70;70.30
913;DHT22;443;51.448;7.028;2024-03-29T15:32:41;14.80;70.90
913;DHT22;443;51.448;7.028;2024-03-29T15:35:09;14.70;71.30
913;DHT22;443;51.448;7.028;2024-03-29T15:37:37;14.70;71.60
913;DHT22;443;51.448;7.028;2024-03-29T15:40:07;14.70;71.90
913;DHT22;443;51.448;7.028;2024-03-29T15:42:38;14.50;73.30
913;DHT22;443;51.448;7.028;2024-03-29T15:45:08;14.50;73.90
913;DHT22;443;51.448;7.028;2024-03-29T15:47:36;14.50;73.90
913;DHT22;443;51.448;7.028;2024-03-29T15:50:04;14.40;73.40
913;DHT22;443;51.448;7.028;2024-03-29T15:52:32;14.40;73.20
913;DHT22;443;51.448;7.028;2024-03-29T15:55:00;14.30;73.10
913;DHT22;443;51.448;7.028;2024-03-29T15:57:27;14.30;73.70
913;DHT22;443;51.448;7.028;2024-03-29T15:59:56;14.20;74.40
913;DHT22;443;51.448;7.028;2024-03-29T16:02:24;14.00;74.50
913;DHT22;443;51.448;7.028;2024-03-29T16:04:52;14.00;73.90
913;DHT22;443;51.448;7.028;2024-03-29T16:07:19;14.10;73.90
913;DHT22;443;51.448;7.028;2024-03-29T16:09:47;14.10;73.30
913;DHT22;443;51.448;7.028;2024-03-29T16:12:15;14.10;73.20
913;DHT22;443;51.448;7.028;2024-03-29T16:14:42;14.10;73.50
913;DHT22;443;51.448;7.028;2024-03-29T16:17:11;14.10;73.20
913;DHT22;443;51.448;7.028;2024-03-29T16:19:39;14.10;72.90
913;DHT22;443;51.448;7.028;2024-03-29T16:22:05;14.10;72.80
913;DHT22;443;51.448;7.028;2024-03-29T16:24:33;14.00;73.80
913;DHT22;443;51.448;7.028;2024-03-29T16:27:00;13.90;73.00
913;DHT22;443;51.448;7.028;2024-03-29T16:29:27;13.90;72.60
913;DHT22;443;51.448;7.028;2024-03-29T16:31:54;13.90;72.50
913;DHT22;443;51.448;7.028;2024-03-29T16:34:23;13.90;71.60
913;DHT22;443;51.448;7.028;2024-03-29T16:36:50;13.90;72.00
913;DHT22;443;51.448;7.028;2024-03-29T16:39:18;13.90;70.10
913;DHT22;443;51.448;7.028;2024-03-29T16:41:45;13.90;70.00
913;DHT22;443;51.448;7.028;2024-03-29T16:44:14;13.80;70.20
913;DHT22;443;51.448;7.028;2024-03-29T16:46:41;13.80;70.40
913;DHT22;443;51.448;7.028;2024-03-29T16:49:09;13.80;70.10
913;DHT22;443;51.448;7.028;2024-03-29T16:51:37;13.80;70.50